Terminal Aerodrome Forecast
Issued by NWS

Home | Current Version | Previous Version | Graphics & Text | Print | Product List | Glossary On
Versions: 1 2 3 4 5 6 7 8 9 10 11 12 13 14 15 16
000
FTUS43 KBIS 241700
TAFJMS
TAF
KJMS 241736Z 2418/2518 12014G20KT P6SM SCT035 OVC150
     FM242000 14020G26KT P6SM SCT060 SCT090
     FM250200 13013KT P6SM SCT050 BKN090
     FM250600 VRB05KT P6SM VCTS SCT050CB BKN090
     FM251500 32015KT P6SM SCT070 SCT090=

USA.gov is the U.S. government's official web portal to all federal, state and local government web resources and services.